South Lake Tahoe, CA

8:34 PM PST on February 10, 2016 (GMT -0800)
ShadyPines | | Change Station
CLOSE
Current Station
Personal Weather Station
Location: South Lake Tahoe, CA
Elevation: 6375 ft
Nearby Weather Stations

Elev 6375 ft 38.86 °N, 120.03 °W | Updated 8 minutes ago

Clear
Clear
28.9 °F
Feels Like 29 °F
N
0.0
Wind Variable Wind from SSE
Gusts 0.0 mph

Today
High -- | Low -- °F
--% Chance of Precip.
Yesterday
High -- | Low -- °F
Precip. -- in
Pressure 30.45 in
Visibility 10.0 miles
Clouds Clear
Windchill 29 °F
Dew Point 26 °F
Humidity 88%
Rainfall 0.00 in
Snow Depth Not available.
6:57 AM 5:31 PM
Waxing Crescent, 9% visible
METAR KTVL 110353Z AUTO 00000KT 10SM CLR 00/M03 A3039 RMK AO2 SLP310 T00001033
Pressure 30.45 in
Visibility 10.0 miles
Clouds Clear
Windchill 29 °F
Dew Point 26 °F
Humidity 88%
Rainfall 0.00 in
Snow Depth Not available.
6:57 AM 5:31 PM
Waxing Crescent, 9% visible
METAR KTVL 110353Z AUTO 00000KT 10SM CLR 00/M03 A3039 RMK AO2 SLP310 T00001033

10-Day Weather Forecast

Almanac

Astronomy

Feb. 10, 2016 Rise Set
Actual Time
Civil Twilight
Nautical Twilight
Astronomical Twilight
Moon
Length of Visible Light
Length of Day
Tomorrow will be .
, % of the Moon is Illuminated

Today's Extremes

State Highs State Lows

Community

WunderPhotos

Upload Photos

1,892,014 photos uploaded!

WunderBlog® & News

Nearby

Air Quality

  Air Quality AQ Index Pollutant
Not available.

Snow Depth

Station Depth Elevation

Earthquake Activity

City Distance Mag. Time & Date
Minimum magnitude displayed is 2.5.

Coastal Water Temperatures

Place Temperature

Stations

Nearby Weather Stations

Station Location Temp. Windchill Dew Point Humidity Wind Precip. Elev Updated Type
                   

Watches & Warnings

There are currently no watches in effect.